Puchberg, Austria
Current Conditions -  °F | °C
As of 11:50 AM on Wednesday 22 Oct 2014 (Local Time) from LOWW Reporting Station
Broken Clouds Broken Clouds  
Wind Chill: 41°   Ceiling: 12000
Heat Index: 48°   Visibility: 6mi
Dew Point: 37°   Wind: 21mph
Humidity: 66%   Direction: 300°WNW
Pressure: 29.74"   Gusts: NA
Location:  47.78°N, 15.92°E
Report Text: LOWW 220950Z 30018KT 9999 FEW032 SCT045 BKN120 09/03 Q1007 NOSIG
Loading
Personal Weather Stations






























Interactive Weather Map
Tropical Storm Tracking
New forecast layout! Learn more

10-Day Weather Forecast

Advertisements
Track Severe Weather on mobile